METAR AND TAF INFORMATION
METAR FOR UHSS
ADDS - METARS form results

(0324 UTC 25 January 2021)
Data provider http://aviationweather.gov/metar/data/
 
METAR text: UHSS 250300Z 01006MPS 9999 SCT034CB M11/M17 Q1030 R01/810260 NOSIG RMK QFE771/1028
Conditions at: UHSS (JUZNO-SAHALINSK , RU) observed 0300 UTC 25 January 2021
Temperature: -11.0°C (12°F)
Dewpoint: -17.0°C ( 1°F) [RH = 61%]
Pressure (altimeter): 30.41 inches Hg (1030.0 mb)
Winds: from the N (10 degrees) at 14 MPH (12 knots; 6.2 m/s)
Visibility: 6 or more miles (10+ km)
Ceiling: at least 12,000 feet AGL
Clouds: scattered clouds at 3400 feet AGL
Weather: no significant weather observed at this time

METAR text: UHSS 250230Z 01006MPS 9999 SCT030 M11/M17 Q1030 R01/810260 NOSIG RMK MT OBSC QFE771/1028
Conditions at: UHSS (JUZNO-SAHALINSK , RU) observed 0230 UTC 25 January 2021
Temperature: -11.0°C (12°F)
Dewpoint: -17.0°C ( 1°F) [RH = 61%]
Pressure (altimeter): 30.41 inches Hg (1030.0 mb)
Winds: from the N (10 degrees) at 14 MPH (12 knots; 6.2 m/s)
Visibility: 6 or more miles (10+ km)
Ceiling: at least 12,000 feet AGL
Clouds: scattered clouds at 3000 feet AGL
Weather: no significant weather observed at this time

Forecast for: UHSS (JUZNO-SAHALINSK , RU)
Text: TAF UHSS 250200Z 2503/2609 33006MPS 9999 BKN030CB
Forecast period: 0300 to 0900 UTC 25 January 2021
Forecast type: FROM: standard forecast or significant change
Winds: from the NNW (330 degrees) at 14 MPH (12 knots; 6.2 m/s)
Visibility: 6 or more miles (10+ km)
Ceiling: 3000 feet AGL
Clouds: broken clouds at 3000 feet AGL
Weather: no significant weather forecast for this period
Text: TEMPO 2503/2509 -SHSN DRSN
Forecast period: 0300 to 0900 UTC 25 January 2021
Forecast type: TEMPORARY: The following changes expected for less than half the time period
Visibility: missing
Ceiling: unknown
Clouds: missing
Weather: -SHSN DRSN  (light snow showers, low drifting snow)
Text: BECMG 2509/2511 01003MPS
Forecast period: 0900 UTC 25 January 2021 to 0900 UTC 26 January 2021
Forecast type: BECOMING: Conditions expected to become as follows by 1100 UTC 25 January 2021
Winds: from the N (10 degrees) at 7 MPH (6 knots; 3.1 m/s)
Visibility: 6 or more miles (10+ km)
Ceiling: 3000 feet AGL
Clouds: broken clouds at 3000 feet AGL
Weather: no significant weather forecast for this period

 AIRPORT MAP

 RUNWAY INFORMATION

 AIRPORT FREQUENCIES
Type GCA Name RDR Frequency 120.6 MHZ
Type TWR Name TWR Frequency 120.6 MHZ

 AIRPORT NEAR NAVIGATION AIDS
Type NDB Name Khomutovo Frequency 505 KHZ
Type NDB Name Khomutovo Frequency 505 KHZ



2018 Air Astana Virtual Airline